Time;durP1;ratioP1;P1;durP2;ratioP2;P2;SDS_P1;SDS_P2;PMS_P1;PMS_P2;Temp;Humidity;BMP_temperature;BMP_pressure;BME280_temperature;BME280_humidity;BME280_pressure;Samples;Min_cycle;Max_cycle;Signal;HPM_P1;HPM_P2
2021/07/01 00:01:54;;;;;;;7.12;6.42;;;;;;;23.21;57.26;99732.13;1685160;83;21058;-75
2021/07/01 00:04:22;;;;;;;6.97;6.28;;;;;;;23.18;57.54;99738.92;1710151;82;20998;-75
2021/07/01 00:06:48;;;;;;;7.97;7.08;;;;;;;23.12;57.82;99746.31;1704124;83;20959;-74
2021/07/01 00:09:17;;;;;;;7.78;7.12;;;;;;;23.05;58.02;99744.48;1712693;82;21042;-74
2021/07/01 00:11:49;;;;;;;8.30;6.37;;;;;;;23.02;58.00;99730.09;1715360;82;21059;-73
2021/07/01 00:14:19;;;;;;;6.42;5.75;;;;;;;23.01;58.13;99727.09;1715453;82;21602;-75
2021/07/01 00:16:48;;;;;;;7.35;6.65;;;;;;;23.05;58.04;99725.45;1705873;83;21047;-74
2021/07/01 00:19:15;;;;;;;8.10;6.50;;;;;;;23.12;57.85;99711.54;1704306;83;21050;-75
2021/07/01 00:21:42;;;;;;;8.80;7.03;;;;;;;23.17;57.64;99703.86;1711914;82;21089;-74
2021/07/01 00:24:09;;;;;;;11.78;6.92;;;;;;;23.18;57.53;99700.06;1700711;82;21087;-74
2021/07/01 00:26:35;;;;;;;5.70;5.22;;;;;;;23.21;57.46;99687.27;1706788;82;21006;-74
2021/07/01 00:29:01;;;;;;;8.13;7.03;;;;;;;23.22;57.66;99683.44;1707869;83;21049;-74
2021/07/01 00:31:27;;;;;;;7.95;7.00;;;;;;;23.11;58.06;99682.72;1707551;82;21193;-75
2021/07/01 00:33:53;;;;;;;;;;;;;;;23.02;58.38;99680.33;1710402;82;21045;-74
2021/07/01 00:36:18;;;;;;;11.28;7.05;;;;;;;22.93;58.75;99672.02;1707629;82;20146;-75
2021/07/01 00:38:49;;;;;;;10.32;7.30;;;;;;;22.86;58.89;99674.25;1688131;82;21087;-75
2021/07/01 00:41:15;;;;;;;7.80;6.75;;;;;;;22.81;59.19;99676.48;1702396;82;21021;-74
2021/07/01 00:43:44;;;;;;;6.72;6.20;;;;;;;22.80;59.19;99665.89;1718469;82;21488;-74
2021/07/01 00:46:16;;;;;;;7.40;6.75;;;;;;;22.83;59.08;99662.06;1687325;84;21106;-74
2021/07/01 00:48:42;;;;;;;7.17;6.67;;;;;;;22.87;59.15;99660.38;1708379;83;21019;-74
2021/07/01 00:51:09;;;;;;;7.72;7.00;;;;;;;22.87;59.20;99668.53;1705107;82;21113;-75
2021/07/01 00:53:35;;;;;;;6.12;5.65;;;;;;;22.89;59.17;99662.82;1680439;84;21034;-75
2021/07/01 00:56:05;;;;;;;7.00;6.60;;;;;;;22.91;58.99;99651.11;1707277;82;21063;-74
2021/07/01 00:58:33;;;;;;;6.65;6.08;;;;;;;22.92;58.86;99654.08;1704283;82;21138;-74
2021/07/01 01:01:02;;;;;;;7.17;6.42;;;;;;;22.94;58.80;99662.75;1697093;83;21138;-73
2021/07/01 01:03:33;;;;;;;6.90;6.40;;;;;;;22.96;58.71;99655.12;1700396;83;21093;-74
2021/07/01 01:06:03;;;;;;;6.85;6.17;;;;;;;22.18;58.72;99519.78;1696371;82;21524;-75
2021/07/01 01:08:30;;;;;;;6.90;6.22;;;;;;;23.02;58.75;99641.76;1638833;84;21040;-74
2021/07/01 01:10:56;;;;;;;7.12;6.40;;;;;;;23.10;58.63;99643.06;1675277;84;21487;-74
2021/07/01 01:13:44;;;;;;;6.45;5.70;;;;;;;23.15;58.50;99638.11;1672111;85;21100;-75
2021/07/01 01:16:13;;;;;;;7.33;6.92;;;;;;;23.17;58.47;99638.09;1667457;85;21071;-75
2021/07/01 01:18:39;;;;;;;8.13;7.20;;;;;;;23.19;58.54;99635.90;1605586;88;21065;-74
2021/07/01 01:21:12;;;;;;;10.80;7.10;;;;;;;23.22;58.53;99642.66;1674928;84;21018;-75
2021/07/01 01:23:39;;;;;;;8.33;7.53;;;;;;;23.18;58.66;99642.42;1693713;82;21129;-75
2021/07/01 01:26:07;;;;;;;7.90;7.15;;;;;;;23.06;58.99;99641.47;1703412;82;21025;-76
2021/07/01 01:28:38;;;;;;;6.85;6.35;;;;;;;22.94;59.31;99639.65;1720796;82;21085;-75
2021/07/01 01:31:05;;;;;;;6.50;6.00;;;;;;;22.84;60.17;99647.91;1689385;83;21066;-76
2021/07/01 01:33:33;;;;;;;7.17;6.45;;;;;;;22.67;60.38;99644.27;1705381;83;21021;-72
2021/07/01 01:36:00;;;;;;;7.33;6.83;;;;;;;22.47;61.23;99635.74;1700173;83;20997;-75
2021/07/01 01:38:27;;;;;;;8.30;7.60;;;;;;;22.30;61.70;99636.98;1693783;83;21125;-75
2021/07/01 01:40:54;;;;;;;7.50;6.95;;;;;;;22.19;62.32;99634.05;1694338;83;21050;-76
2021/07/01 01:43:22;;;;;;;7.58;6.97;;;;;;;22.11;62.68;99625.97;1699935;84;21515;-75
2021/07/01 01:45:51;;;;;;;6.72;6.22;;;;;;;22.05;63.20;99632.50;1700169;83;21507;-75
2021/07/01 01:48:20;;;;;;;7.17;6.67;;;;;;;21.96;64.14;99633.66;1701955;83;21187;-76
2021/07/01 01:50:46;;;;;;;7.60;6.85;;;;;;;21.85;64.90;99633.98;1699629;83;21014;-73
2021/07/01 01:53:13;;;;;;;8.15;7.42;;;;;;;21.70;65.43;99634.87;1740419;81;21022;-76
2021/07/01 01:55:40;;;;;;;7.53;7.03;;;;;;;21.61;65.76;99628.44;1740965;81;21029;-74
2021/07/01 01:58:07;;;;;;;8.45;7.83;;;;;;;21.56;65.94;99621.92;1758693;80;21061;-74
2021/07/01 02:00:52;;;;;;;8.53;7.83;;;;;;;21.57;66.00;99615.98;1751141;81;21085;-74
2021/07/01 02:03:20;;;;;;;9.80;7.97;;;;;;;21.56;66.27;99607.01;1760813;80;21046;-74
2021/07/01 02:05:54;;;;;;;9.55;8.60;;;;;;;21.57;66.28;99600.51;1732948;80;21054;-74
2021/07/01 02:08:21;;;;;;;11.00;9.88;;;;;;;21.51;66.60;99592.14;1752877;80;21022;-74
2021/07/01 02:10:48;;;;;;;7.90;7.20;;;;;;;21.48;66.70;99594.05;1749501;80;21145;-73
2021/07/01 02:13:14;;;;;;;8.63;8.00;;;;;;;21.47;66.70;99594.32;1746063;80;21122;-74
2021/07/01 02:15:45;;;;;;;9.03;8.23;;;;;;;21.51;66.74;99593.50;1754926;80;20983;-75
2021/07/01 02:18:12;;;;;;;8.23;7.53;;;;;;;21.52;66.83;99597.81;1738909;81;21098;-74
2021/07/01 02:20:39;;;;;;;8.68;7.85;;;;;;;21.48;67.19;99599.47;1754156;80;21056;-74
2021/07/01 02:23:06;;;;;;;8.83;7.92;;;;;;;21.44;67.53;99588.92;1766365;79;21120;-73
2021/07/01 02:25:35;;;;;;;8.33;7.70;;;;;;;21.46;67.71;99588.65;1763567;80;21012;-73
2021/07/01 02:28:06;;;;;;;8.18;7.28;;;;;;;21.45;67.84;99588.37;1759748;80;21021;-73
2021/07/01 02:30:33;;;;;;;8.53;7.65;;;;;;;21.38;67.99;99582.68;1763930;80;21013;-74
2021/07/01 02:33:00;;;;;;;8.25;7.50;;;;;;;21.36;68.04;99584.03;1734884;81;21077;-74
2021/07/01 02:35:25;;;;;;;;;;;;;;;21.37;68.06;99582.41;1762087;80;21086;-75
2021/07/01 02:38:10;;;;;;;8.30;7.65;;;;;;;21.39;68.07;99578.06;1743571;81;20147;-75
2021/07/01 02:40:38;;;;;;;8.30;7.78;;;;;;;21.34;68.23;99583.50;1749411;81;21499;-75
2021/07/01 02:43:07;;;;;;;8.93;8.28;;;;;;;21.35;68.30;99582.42;1743937;81;21532;-75
2021/07/01 02:45:33;;;;;;;;;;;;;;;21.38;68.23;99581.87;1756344;80;21534;-74
2021/07/01 02:48:07;;;;;;;9.35;8.13;;;;;;;21.38;68.31;99573.75;1749436;80;20129;-73
2021/07/01 02:50:36;;;;;;;8.53;7.92;;;;;;;21.32;68.46;99574.84;1753978;80;21113;-73
2021/07/01 02:53:02;;;;;;;7.70;7.20;;;;;;;21.37;68.37;99568.84;1741906;80;21581;-74
2021/07/01 02:55:29;;;;;;;7.12;6.62;;;;;;;21.46;68.13;99567.76;1747742;80;21110;-74
2021/07/01 02:57:55;;;;;;;15.20;7.78;;;;;;;21.56;67.98;99564.98;1738555;80;20980;-74
2021/07/01 03:00:21;;;;;;;;;;;;;;;21.75;67.67;99565.69;1757576;80;21021;-74
2021/07/01 03:02:52;;;;;;;10.58;7.35;;;;;;;21.91;67.07;99567.77;1756248;80;20431;-75
2021/07/01 03:05:36;;;;;;;8.40;7.72;;;;;;;22.06;66.67;99584.48;1746835;81;21057;-74
2021/07/01 03:08:03;;;;;;;8.20;7.55;;;;;;;22.40;65.92;99586.41;1755061;80;21017;-74
2021/07/01 03:10:29;;;;;;;7.90;7.30;;;;;;;22.66;64.84;99589.67;1751807;80;21039;-74
2021/07/01 03:12:57;;;;;;;8.13;7.53;;;;;;;22.83;64.31;99600.09;1737990;80;21000;-74
2021/07/01 03:15:25;;;;;;;8.68;8.05;;;;;;;22.86;63.85;99607.68;1752550;80;21074;-74
2021/07/01 03:17:51;;;;;;;8.40;7.55;;;;;;;22.93;63.84;99614.95;1730917;81;21037;-75
2021/07/01 03:20:19;;;;;;;8.13;7.37;;;;;;;23.12;63.07;99622.64;1755903;80;21001;-74
2021/07/01 03:23:04;;;;;;;8.88;6.75;;;;;;;23.33;62.74;99633.28;1760804;80;21009;-73
2021/07/01 03:25:30;;;;;;;8.45;7.67;;;;;;;23.69;62.04;99634.98;1733207;81;21081;-74
2021/07/01 03:27:56;;;;;;;8.05;7.33;;;;;;;24.13;60.72;99637.14;1759137;80;21046;-74
2021/07/01 03:30:24;;;;;;;7.22;6.60;;;;;;;24.59;59.43;99644.58;1742842;81;20935;-74
2021/07/01 03:32:50;;;;;;;9.00;7.53;;;;;;;25.06;58.17;99644.00;1746976;80;21117;-75
2021/07/01 03:35:17;;;;;;;7.92;7.17;;;;;;;25.59;56.50;99645.43;1748944;81;21086;-73
2021/07/01 03:38:01;;;;;;;7.70;7.05;;;;;;;26.06;55.33;99653.45;1745672;80;21637;-74
2021/07/01 03:40:30;;;;;;;6.78;6.22;;;;;;;26.47;53.99;99661.24;1756931;80;21126;-73
2021/07/01 03:42:56;;;;;;;7.65;7.05;;;;;;;26.66;53.12;99666.53;1732409;81;21002;-74
2021/07/01 03:45:23;;;;;;;6.53;5.92;;;;;;;26.79;52.80;99668.38;1747280;80;20966;-74
2021/07/01 03:47:54;;;;;;;6.70;6.20;;;;;;;26.70;52.60;99669.69;1742861;81;21006;-74
2021/07/01 03:50:21;;;;;;;7.97;7.25;;;;;;;26.51;52.85;99682.16;1739685;80;21566;-73
2021/07/01 03:53:04;;;;;;;8.58;7.83;;;;;;;26.25;53.34;99687.98;1752780;80;20998;-76
2021/07/01 03:55:31;;;;;;;9.40;7.03;;;;;;;25.87;54.31;99696.45;1759468;80;21033;-76
2021/07/01 03:57:58;;;;;;;8.33;7.62;;;;;;;25.53;55.51;99696.34;1708800;83;20995;-76
2021/07/01 04:00:25;;;;;;;13.65;9.50;;;;;;;25.22;56.82;99694.98;1668279;84;21054;-74
2021/07/01 04:02:53;;;;;;;9.78;8.85;;;;;;;24.84;57.61;99687.48;1705430;83;21499;-74
2021/07/01 04:05:21;;;;;;;9.80;9.00;;;;;;;24.46;59.09;99694.35;1706977;83;21131;-75
2021/07/01 04:07:49;;;;;;;9.28;8.55;;;;;;;24.21;59.69;99699.64;1706958;83;21106;-74
2021/07/01 04:10:18;;;;;;;8.75;8.00;;;;;;;24.02;60.70;99702.36;1709095;83;21018;-75
2021/07/01 04:12:52;;;;;;;8.15;7.45;;;;;;;23.90;61.03;99702.77;1703604;83;21041;-76
2021/07/01 04:15:32;;;;;;;8.23;7.62;;;;;;;23.83;61.46;99699.62;1691329;84;21740;-74
2021/07/01 04:18:19;;;;;;;8.93;8.23;;;;;;;23.75;61.66;99702.94;1695471;83;21166;-75
2021/07/01 04:21:04;;;;;;;8.43;7.70;;;;;;;23.68;62.08;99701.95;1735537;81;20999;-75
2021/07/01 04:23:49;;;;;;;8.38;7.78;;;;;;;23.66;62.24;99707.68;1733175;81;21539;-75
2021/07/01 04:26:37;;;;;;;9.13;8.38;;;;;;;23.71;62.17;99704.08;1742344;80;21033;-77
2021/07/01 04:29:05;;;;;;;9.08;8.38;;;;;;;23.77;62.65;99693.41;1754037;80;21014;-76
2021/07/01 04:33:23;;;;;;;9.90;9.10;;;;;;;23.70;63.16;99693.75;1795739;78;23188;-76
2021/07/01 04:35:50;;;;;;;9.60;8.63;;;;;;;23.52;63.49;99695.87;1736597;81;21434;-76
2021/07/01 04:38:20;;;;;;;9.53;8.65;;;;;;;23.46;63.62;99691.04;1750749;81;21128;-76
2021/07/01 04:40:47;;;;;;;9.13;8.40;;;;;;;23.52;63.61;99698.59;1759208;81;21009;-75
2021/07/01 04:43:14;;;;;;;9.00;8.28;;;;;;;23.59;63.44;99695.53;1759378;80;21049;-76
2021/07/01 04:45:40;;;;;;;9.53;8.53;;;;;;;23.65;63.33;99694.36;1761869;80;20980;-75
2021/07/01 04:48:08;;;;;;;9.45;8.65;;;;;;;23.69;63.13;99690.75;1762965;80;22175;-76
2021/07/01 04:50:35;;;;;;;9.45;8.80;;;;;;;23.74;63.01;99693.98;1756516;80;21040;-77
2021/07/01 04:53:19;;;;;;;9.73;8.78;;;;;;;23.77;62.88;99696.13;1751661;80;21029;-75
2021/07/01 04:56:04;;;;;;;9.30;8.60;;;;;;;23.79;62.68;99702.12;1752920;81;21063;-74
2021/07/01 04:58:38;;;;;;;11.08;8.98;;;;;;;23.83;62.62;99714.59;1762011;81;21056;-73
2021/07/01 05:01:10;;;;;;;9.15;8.40;;;;;;;23.88;62.54;99722.67;1709339;80;21000;-76
2021/07/01 05:03:50;;;;;;;9.78;8.88;;;;;;;23.69;62.49;99688.59;1744011;80;21076;-73
2021/07/01 05:06:16;;;;;;;9.90;9.00;;;;;;;23.97;62.49;99718.75;1754331;81;21144;-74
2021/07/01 05:08:42;;;;;;;9.10;8.30;;;;;;;23.98;62.35;99719.83;1759219;80;21040;-75
2021/07/01 05:11:09;;;;;;;9.55;8.80;;;;;;;23.99;62.35;99720.07;1758240;80;21175;-73
2021/07/01 05:13:36;;;;;;;11.03;10.05;;;;;;;24.01;62.30;99722.50;1685459;83;21145;-75
2021/07/01 05:16:04;;;;;;;11.63;10.65;;;;;;;24.04;62.20;99727.37;1693271;82;21259;-75
2021/07/01 05:18:31;;;;;;;10.20;9.30;;;;;;;24.03;62.08;99724.38;1694693;82;21050;-74
2021/07/01 05:21:08;;;;;;;9.28;8.53;;;;;;;24.10;62.20;99728.92;1673617;84;21598;-74
2021/07/01 05:23:54;;;;;;;9.95;9.25;;;;;;;23.99;62.28;99711.10;1709977;83;21021;-77
2021/07/01 05:26:38;;;;;;;9.88;8.95;;;;;;;24.08;62.12;99736.57;1706459;84;21153;-73
2021/07/01 05:29:22;;;;;;;8.05;7.53;;;;;;;24.01;62.29;99736.91;1707906;84;21061;-73
2021/07/01 05:32:09;;;;;;;10.08;9.05;;;;;;;24.00;62.30;99741.31;1708665;82;21039;-75
2021/07/01 05:34:40;;;;;;;9.88;8.60;;;;;;;23.96;62.15;99742.98;1745721;79;20978;-74
2021/07/01 05:37:06;;;;;;;9.13;8.10;;;;;;;23.95;62.09;99746.81;1751547;80;21217;-76
2021/07/01 05:39:34;;;;;;;8.38;7.65;;;;;;;23.96;61.63;99746.53;1743129;80;21053;-77
2021/07/01 05:42:04;;;;;;;9.18;8.40;;;;;;;23.99;61.48;99745.12;1752851;82;21030;-75
2021/07/01 05:44:30;;;;;;;7.90;7.15;;;;;;;24.04;60.96;99747.79;1750428;80;21046;-74
2021/07/01 05:46:57;;;;;;;7.28;6.67;;;;;;;24.14;60.42;99755.81;1737421;80;20974;-74
2021/07/01 05:49:24;;;;;;;11.63;7.85;;;;;;;24.17;59.84;99755.23;1739716;80;21543;-74
2021/07/01 05:51:55;;;;;;;9.55;8.00;;;;;;;24.16;59.77;99759.61;1751059;82;21616;-75
2021/07/01 05:56:46;;;;;;;8.30;7.50;;;;;;;23.62;60.66;99705.29;1746669;80;20997;-75
2021/07/01 05:59:12;;;;;;;9.08;8.10;;;;;;;23.94;61.07;99752.82;1749353;80;21073;-76
2021/07/01 06:01:39;;;;;;;8.28;7.58;;;;;;;23.93;61.17;99751.19;1749332;82;20969;-74
2021/07/01 06:04:07;;;;;;;8.03;7.42;;;;;;;23.98;60.94;99751.13;1749871;80;21040;-75
2021/07/01 06:06:40;;;;;;;8.10;7.28;;;;;;;24.03;61.17;99756.48;1741094;80;21029;-74
2021/07/01 06:09:09;;;;;;;8.60;7.80;;;;;;;23.98;61.31;99759.30;1746139;80;20978;-74
2021/07/01 06:11:36;;;;;;;9.00;7.70;;;;;;;23.87;61.68;99751.00;1744559;80;21160;-74
2021/07/01 06:14:06;;;;;;;13.75;7.85;;;;;;;23.85;61.83;99752.64;1715024;82;21001;-74
2021/07/01 06:16:35;;;;;;;14.33;8.05;;;;;;;23.88;61.87;99759.41;1750618;82;21475;-76
2021/07/01 06:19:04;;;;;;;8.78;7.95;;;;;;;23.82;62.14;99757.86;1749752;80;21447;-77
2021/07/01 06:21:32;;;;;;;9.43;8.03;;;;;;;23.74;62.52;99757.12;1745667;80;21017;-76
2021/07/01 06:23:59;;;;;;;9.25;8.53;;;;;;;23.70;62.65;99751.44;1693055;82;20995;-78
2021/07/01 06:26:29;;;;;;;11.63;8.55;;;;;;;23.74;62.81;99747.59;1684754;83;21072;-74
2021/07/01 06:28:56;;;;;;;8.83;6.83;;;;;;;23.81;62.69;99752.14;1672091;84;21055;-73
2021/07/01 06:31:24;;;;;;;8.38;7.58;;;;;;;23.85;62.46;99744.48;1683606;83;21082;-75
2021/07/01 06:33:50;;;;;;;9.08;7.80;;;;;;;23.64;62.34;99700.89;1689079;84;21123;-76
2021/07/01 06:36:19;;;;;;;11.38;7.90;;;;;;;23.88;62.36;99738.47;1685492;84;21042;-75
2021/07/01 06:39:05;;;;;;;8.43;7.70;;;;;;;23.90;62.65;99736.27;1699072;83;20987;-74
2021/07/01 06:41:53;;;;;;;8.60;7.90;;;;;;;23.99;62.79;99750.02;1685280;83;21173;-74
2021/07/01 06:44:40;;;;;;;8.45;7.75;;;;;;;24.07;62.58;99749.91;1707307;80;21024;-76
2021/07/01 06:47:28;;;;;;;16.93;8.90;;;;;;;24.17;62.52;99747.06;1744191;80;21080;-75
2021/07/01 06:50:15;;;;;;;11.53;8.18;;;;;;;24.25;62.31;99749.13;1745582;80;21589;-73
2021/07/01 06:53:00;;;;;;;12.55;9.50;;;;;;;24.30;62.53;99746.89;1749195;80;21701;-74
2021/07/01 06:55:31;;;;;;;11.70;9.15;;;;;;;24.34;62.58;99741.67;1737021;80;21016;-75
2021/07/01 06:58:06;;;;;;;11.48;8.80;;;;;;;24.42;62.59;99746.44;1747721;80;21001;-75
2021/07/01 07:00:32;;;;;;;8.80;7.70;;;;;;;24.54;61.98;99747.38;1745990;81;21079;-75
2021/07/01 07:02:58;;;;;;;7.67;7.03;;;;;;;24.68;60.79;99746.34;1749460;80;21529;-75
2021/07/01 07:05:26;;;;;;;9.68;8.68;;;;;;;24.84;60.62;99744.72;1746150;82;21585;-76
2021/07/01 07:07:53;;;;;;;12.50;9.40;;;;;;;25.02;60.27;99746.59;1745348;82;21060;-76
2021/07/01 07:10:21;;;;;;;13.00;8.93;;;;;;;25.10;60.29;99742.37;1744741;80;21611;-77
2021/07/01 07:12:51;;;;;;;10.03;8.95;;;;;;;25.12;60.25;99740.15;1746955;80;21051;-78
2021/07/01 07:15:27;;;;;;;11.95;9.10;;;;;;;25.15;60.14;99742.85;1750547;80;21025;-75
2021/07/01 07:17:53;;;;;;;10.13;9.13;;;;;;;25.13;60.01;99731.41;1747206;80;21100;-77
2021/07/01 07:20:23;;;;;;;15.68;9.63;;;;;;;25.17;60.16;99726.44;1752025;81;21295;-75
2021/07/01 07:22:51;;;;;;;14.20;8.73;;;;;;;25.09;60.12;99731.23;1742261;80;21634;-76
2021/07/01 07:25:18;;;;;;;11.15;9.68;;;;;;;25.02;60.42;99728.88;1736300;80;21048;-76
2021/07/01 07:27:55;;;;;;;14.15;9.13;;;;;;;25.00;60.46;99728.37;1743018;80;21088;-76
2021/07/01 07:30:26;;;;;;;13.78;8.20;;;;;;;25.01;60.74;99728.61;1741271;80;21557;-74
2021/07/01 07:32:55;;;;;;;12.43;8.00;;;;;;;25.08;60.57;99724.70;1738178;82;21017;-77
2021/07/01 07:35:23;;;;;;;12.65;7.35;;;;;;;25.15;59.95;99716.38;1728465;79;21010;-76
2021/07/01 07:37:49;;;;;;;9.20;8.08;;;;;;;25.17;59.94;99714.73;1739356;82;21623;-74
2021/07/01 07:40:16;;;;;;;9.95;8.95;;;;;;;25.21;59.93;99708.35;1735177;82;21558;-75
2021/07/01 07:42:45;;;;;;;8.80;7.15;;;;;;;25.27;59.74;99717.28;1753681;80;21033;-74
2021/07/01 07:45:14;;;;;;;9.68;8.75;;;;;;;25.41;59.50;99718.11;1746137;79;21067;-75
2021/07/01 07:47:41;;;;;;;11.22;8.90;;;;;;;25.71;58.86;99709.59;1747005;80;21125;-76
2021/07/01 07:50:11;;;;;;;14.23;9.20;;;;;;;25.90;58.22;99715.77;1748713;82;21049;-74
2021/07/01 07:52:48;;;;;;;10.28;9.28;;;;;;;26.00;57.86;99710.66;1752087;80;21561;-75
2021/07/01 07:55:19;;;;;;;15.40;8.68;;;;;;;26.05;57.63;99713.83;1750204;82;21100;-73
2021/07/01 07:57:52;;;;;;;10.18;8.70;;;;;;;26.08;57.78;99709.13;1747809;80;21681;-75
2021/07/01 08:00:20;;;;;;;10.23;8.68;;;;;;;26.12;57.54;99708.19;1740429;81;21028;-74
2021/07/01 08:02:54;;;;;;;9.15;8.25;;;;;;;26.10;57.59;99695.41;1737323;80;21088;-74
2021/07/01 08:05:24;;;;;;;15.98;9.08;;;;;;;26.23;57.85;99710.14;1730116;82;21100;-75
2021/07/01 08:07:52;;;;;;;10.48;9.03;;;;;;;26.34;56.93;99703.33;1734736;80;20974;-75
2021/07/01 08:10:22;;;;;;;13.50;8.45;;;;;;;26.44;56.83;99699.54;1737693;80;20931;-76
2021/07/01 08:12:51;;;;;;;10.03;7.95;;;;;;;26.56;56.49;99702.53;1753382;80;21017;-75
2021/07/01 08:15:20;;;;;;;11.25;8.60;;;;;;;26.60;56.02;99700.82;1752653;80;21498;-74
2021/07/01 08:17:49;;;;;;;11.68;8.75;;;;;;;26.53;56.16;99699.05;1753490;80;21283;-76
2021/07/01 08:20:18;;;;;;;9.53;8.45;;;;;;;26.48;55.90;99703.83;1753464;80;21590;-77
2021/07/01 08:22:48;;;;;;;12.18;8.13;;;;;;;26.42;56.24;99697.11;1752856;81;20978;-77
2021/07/01 08:25:17;;;;;;;9.98;8.73;;;;;;;26.40;56.40;99695.25;1748314;80;20994;-74
2021/07/01 08:27:47;;;;;;;11.38;8.25;;;;;;;26.38;56.66;99695.32;1745838;82;21052;-75
2021/07/01 08:30:18;;;;;;;10.08;7.65;;;;;;;26.37;56.67;99688.23;1741425;80;21571;-74
2021/07/01 08:32:48;;;;;;;12.18;9.05;;;;;;;26.44;56.92;99694.08;1750587;82;21440;-75
2021/07/01 08:35:21;;;;;;;9.05;8.23;;;;;;;26.54;56.13;99693.02;1751204;80;20966;-74
2021/07/01 08:37:49;;;;;;;10.10;8.23;;;;;;;26.57;56.09;99700.03;1745322;80;21057;-75
2021/07/01 08:40:18;;;;;;;11.50;9.45;;;;;;;26.56;56.01;99686.14;1759978;80;21550;-75
2021/07/01 08:42:47;;;;;;;11.18;7.95;;;;;;;26.59;55.73;99683.33;1755363;80;21518;-76
2021/07/01 08:45:15;;;;;;;8.80;7.17;;;;;;;26.64;55.16;99694.75;1741768;80;20965;-75
2021/07/01 08:47:44;;;;;;;11.88;7.33;;;;;;;26.79;54.78;99687.52;1753663;80;21033;-75
2021/07/01 08:50:15;;;;;;;9.25;8.45;;;;;;;26.98;54.66;99677.73;1754746;80;21068;-70
2021/07/01 08:53:09;;;;;;;7.87;7.08;;;;;;;27.17;54.16;99678.29;1751066;80;20993;-74
2021/07/01 08:55:39;;;;;;;10.85;7.85;;;;;;;27.35;53.27;99685.22;1743429;80;21120;-75
2021/07/01 08:58:09;;;;;;;9.08;7.40;;;;;;;27.50;52.37;99687.55;1749319;82;20958;-74
2021/07/01 09:00:42;;;;;;;9.60;7.33;;;;;;;27.59;51.97;99673.87;1748579;80;21503;-77
2021/07/01 09:03:09;;;;;;;9.50;7.20;;;;;;;27.70;51.36;99675.18;1751842;82;20926;-75
2021/07/01 09:05:38;;;;;;;9.65;6.03;;;;;;;27.79;51.17;99662.09;1752018;80;21078;-77
2021/07/01 09:08:13;;;;;;;6.75;5.65;;;;;;;27.88;50.27;99668.38;1746856;80;21041;-74
2021/07/01 09:10:51;;;;;;;7.23;6.60;;;;;;;27.88;49.58;99672.49;1746004;82;20993;-74
2021/07/01 09:13:22;;;;;;;8.10;6.78;;;;;;;27.89;50.26;99674.13;1753120;80;21546;-75
2021/07/01 09:15:50;;;;;;;13.18;5.85;;;;;;;27.93;49.37;99677.82;1751860;82;20985;-77
2021/07/01 09:18:17;;;;;;;6.67;5.78;;;;;;;27.90;49.03;99677.91;1749656;80;21514;-77
2021/07/01 09:20:43;;;;;;;12.33;6.20;;;;;;;27.90;49.53;99670.27;1747924;80;21475;-77
2021/07/01 09:23:12;;;;;;;10.60;5.30;;;;;;;27.95;49.06;99659.96;1724238;80;21062;-76
2021/07/01 09:25:42;;;;;;;6.40;5.50;;;;;;;28.02;48.83;99664.95;1752033;82;21585;-77
2021/07/01 09:28:08;;;;;;;10.08;5.58;;;;;;;28.14;48.80;99667.86;1744885;80;21636;-77
2021/07/01 09:30:36;;;;;;;6.22;5.22;;;;;;;28.29;48.16;99665.74;1734127;82;21014;-75
2021/07/01 09:33:06;;;;;;;5.15;4.72;;;;;;;28.45;48.08;99658.64;1731528;81;21024;-69
2021/07/01 09:35:36;;;;;;;5.30;4.83;;;;;;;28.59;46.48;99649.45;1725313;82;21074;-75
2021/07/01 09:38:06;;;;;;;7.12;4.65;;;;;;;28.59;45.63;99650.83;1717061;82;21078;-75
2021/07/01 09:40:36;;;;;;;8.08;3.65;;;;;;;28.54;45.99;99654.56;1713203;83;21089;-79
2021/07/01 09:43:06;;;;;;;4.78;3.30;;;;;;;28.58;44.71;99656.88;1728226;83;21485;-73
2021/07/01 09:45:35;;;;;;;4.95;3.80;;;;;;;28.63;44.60;99649.03;1716099;83;21026;-76
2021/07/01 09:48:12;;;;;;;6.28;3.25;;;;;;;28.67;43.28;99656.84;1706552;82;21543;-74
2021/07/01 09:50:49;;;;;;;8.93;3.92;;;;;;;28.67;43.01;99651.36;1710445;82;22593;-74
2021/07/01 09:53:34;;;;;;;4.90;3.60;;;;;;;28.62;43.27;99646.08;1708115;82;20998;-74
2021/07/01 09:56:05;;;;;;;4.33;3.92;;;;;;;28.62;43.04;99639.22;1712694;83;20998;-73
2021/07/01 09:58:48;;;;;;;6.08;4.17;;;;;;;28.70;43.43;99645.23;1704336;82;21595;-74
2021/07/01 10:01:38;;;;;;;3.22;2.95;;;;;;;28.83;43.28;99640.11;1709139;81;21081;-76
2021/07/01 10:04:01;;;;;;;5.28;2.80;;;;;;;28.91;42.15;99641.21;1729387;81;21034;-74
2021/07/01 10:06:28;;;;;;;6.05;2.92;;;;;;;28.85;42.48;99628.81;1716996;81;20987;-74
2021/07/01 10:08:55;;;;;;;5.50;3.25;;;;;;;28.82;42.24;99626.17;1714007;83;21009;-73
2021/07/01 10:11:43;;;;;;;4.87;2.95;;;;;;;28.79;42.39;99622.71;1722192;82;21045;-72
2021/07/01 10:14:14;;;;;;;5.58;3.08;;;;;;;28.69;42.21;99627.19;1680333;83;21013;-74
2021/07/01 10:16:42;;;;;;;7.72;3.52;;;;;;;28.63;42.58;99614.77;1692328;83;20954;-78
2021/07/01 10:19:10;;;;;;;5.30;3.33;;;;;;;28.60;42.78;99611.33;1690673;84;21022;-73
2021/07/01 10:21:38;;;;;;;3.58;3.02;;;;;;;28.57;42.84;99614.71;1684053;84;21014;-77
2021/07/01 10:24:25;;;;;;;3.52;3.00;;;;;;;28.58;42.73;99610.85;1707066;82;20994;-79
2021/07/01 10:26:50;;;;;;;13.53;3.60;;;;;;;28.59;42.63;99604.22;1700313;82;21606;-74
2021/07/01 10:29:18;;;;;;;7.62;3.42;;;;;;;28.67;43.18;99606.13;1701924;82;20993;-75
2021/07/01 10:31:59;;;;;;;4.55;2.58;;;;;;;28.73;43.21;99597.41;1704029;82;21010;-78
2021/07/01 10:34:29;;;;;;;9.15;3.12;;;;;;;28.76;42.93;99597.87;1697027;82;20967;-76
2021/07/01 10:37:24;;;;;;;3.52;3.00;;;;;;;28.65;43.03;99598.79;1704443;83;21102;-74
2021/07/01 10:39:48;;;;;;;7.67;3.22;;;;;;;28.60;42.78;99593.51;1685953;83;21030;-75
2021/07/01 10:42:16;;;;;;;3.42;2.83;;;;;;;28.59;42.98;99593.25;1689074;83;21055;-76
2021/07/01 10:44:44;;;;;;;4.95;3.15;;;;;;;28.65;43.00;99589.20;1691723;83;21055;-74
2021/07/01 10:47:32;;;;;;;6.08;3.08;;;;;;;28.81;42.32;99585.36;1670568;84;20998;-78
2021/07/01 10:50:01;;;;;;;4.10;2.77;;;;;;;28.86;42.16;99589.30;1670228;84;21117;-76
2021/07/01 10:52:44;;;;;;;8.58;2.35;;;;;;;28.86;41.88;99594.79;1660736;84;21039;-75
2021/07/01 10:55:09;;;;;;;6.17;2.62;;;;;;;28.84;41.76;99599.77;1674018;84;21004;-76
2021/07/01 10:57:36;;;;;;;4.83;1.70;;;;;;;28.82;41.88;99596.01;1670016;84;21022;-76
2021/07/01 11:00:04;;;;;;;8.08;2.15;;;;;;;28.82;41.94;99585.58;1677331;85;21510;-75
2021/07/01 11:02:33;;;;;;;4.10;2.80;;;;;;;28.78;41.98;99583.27;1660759;84;20989;-75
2021/07/01 11:05:03;;;;;;;6.80;2.80;;;;;;;28.76;42.48;99583.59;1667425;84;21037;-75
2021/07/01 11:07:42;;;;;;;5.50;2.75;;;;;;;28.76;43.22;99584.16;1654335;84;21087;-74
2021/07/01 11:10:11;;;;;;;8.13;2.58;;;;;;;28.78;43.12;99592.86;1666026;84;21032;-74
2021/07/01 11:12:45;;;;;;;4.85;1.87;;;;;;;28.88;43.16;99589.78;1671871;83;21628;-76
2021/07/01 11:15:15;;;;;;;3.50;2.62;;;;;;;28.93;42.25;99586.28;1677531;84;21124;-79
2021/07/01 11:17:43;;;;;;;5.12;1.82;;;;;;;28.98;41.59;99574.31;1669036;84;20989;-79
2021/07/01 11:20:21;;;;;;;5.03;2.12;;;;;;;29.04;41.47;99577.09;1675619;84;21513;-80
2021/07/01 11:23:02;;;;;;;5.58;1.92;;;;;;;29.06;41.07;99572.65;1657499;84;21160;-79
2021/07/01 11:25:31;;;;;;;3.30;1.10;;;;;;;29.10;40.85;99570.84;1656027;86;21073;-80
2021/07/01 11:28:26;;;;;;;2.02;1.25;;;;;;;29.17;40.32;99573.11;1655809;86;20986;-78
2021/07/01 11:31:02;;;;;;;1.98;1.60;;;;;;;29.22;40.29;99571.56;1657301;86;21181;-83
2021/07/01 11:33:30;;;;;;;5.67;1.98;;;;;;;29.29;39.70;99571.27;1667545;84;21150;-77
2021/07/01 11:36:14;;;;;;;8.90;1.77;;;;;;;29.39;39.27;99569.27;1699520;82;21488;-79
2021/07/01 11:38:42;;;;;;;4.58;2.40;;;;;;;29.48;39.39;99565.91;1698981;82;20971;-78
2021/07/01 11:41:09;;;;;;;5.40;1.72;;;;;;;29.53;39.00;99568.43;1696988;82;21001;-79
2021/07/01 11:43:39;;;;;;;3.42;1.67;;;;;;;29.57;39.35;99565.82;1700420;82;21591;-79
2021/07/01 11:46:06;;;;;;;2.45;1.05;;;;;;;29.48;38.96;99565.33;1698922;82;21050;-78
2021/07/01 11:48:34;;;;;;;2.98;1.25;;;;;;;29.43;39.23;99574.33;1695704;82;21030;-80
2021/07/01 11:51:05;;;;;;;3.00;1.02;;;;;;;29.40;39.51;99574.98;1702788;82;21050;-76
2021/07/01 11:53:32;;;;;;;3.70;1.32;;;;;;;29.35;39.89;99575.17;1700240;82;21542;-79